createdAt,value
2023-04-29T00:01:05.900Z,33.20
2023-04-29T00:03:33.188Z,30.70
2023-04-29T00:06:00.619Z,30.73
2023-04-29T00:08:27.767Z,29.30
2023-04-29T00:10:54.374Z,26.77
2023-04-29T00:13:21.302Z,30.13
2023-04-29T00:15:48.108Z,33.20
2023-04-29T00:18:14.665Z,29.83
2023-04-29T00:20:41.932Z,26.83
2023-04-29T00:23:08.875Z,25.83
2023-04-29T00:25:36.049Z,24.53
2023-04-29T00:28:03.362Z,28.73
2023-04-29T00:30:30.235Z,27.13
2023-04-29T00:32:56.882Z,26.57
2023-04-29T00:35:23.574Z,27.73
2023-04-29T00:37:50.202Z,29.57
2023-04-29T00:40:17.441Z,28.17
2023-04-29T00:42:44.064Z,25.90
2023-04-29T00:45:11.585Z,29.90
2023-04-29T00:47:38.897Z,32.70
2023-04-29T00:50:07.982Z,32.80
2023-04-29T00:52:34.877Z,38.50
2023-04-29T00:55:01.686Z,42.20
2023-04-29T00:57:31.041Z,41.57
2023-04-29T00:59:58.895Z,43.63
2023-04-29T01:02:26.813Z,37.20
2023-04-29T01:04:53.597Z,44.87
2023-04-29T01:07:26.245Z,50.50
2023-04-29T01:10:11.634Z,50.33
2023-04-29T01:12:50.397Z,47.50
2023-04-29T01:15:29.259Z,42.17
2023-04-29T01:18:00.821Z,48.77
2023-04-29T01:20:28.047Z,45.30
2023-04-29T01:22:54.574Z,47.90
2023-04-29T01:25:21.105Z,46.40
2023-04-29T01:28:13.229Z,42.87
2023-04-29T01:30:49.196Z,45.57
2023-04-29T01:33:43.995Z,54.00
2023-04-29T01:36:19.635Z,47.47
2023-04-29T01:38:55.079Z,56.50
2023-04-29T01:41:33.171Z,59.03
2023-04-29T01:44:01.813Z,61.70
2023-04-29T01:46:28.758Z,59.37
2023-04-29T01:48:55.472Z,55.17
2023-04-29T01:51:22.342Z,65.27
2023-04-29T01:53:49.256Z,67.27
2023-04-29T01:56:16.136Z,63.93
2023-04-29T01:58:42.914Z,64.23
2023-04-29T02:01:10.488Z,64.97
2023-04-29T02:03:37.495Z,75.13
2023-04-29T02:06:04.454Z,67.70
2023-04-29T02:08:31.242Z,66.40
2023-04-29T02:10:59.888Z,65.77
2023-04-29T02:13:26.911Z,64.30
2023-04-29T02:15:53.480Z,66.10
2023-04-29T02:18:20.302Z,65.77
2023-04-29T02:20:46.824Z,66.23
2023-04-29T02:23:13.726Z,73.30
2023-04-29T02:25:40.294Z,90.20
2023-04-29T02:28:07.159Z,87.23
2023-04-29T02:30:33.991Z,91.27
2023-04-29T02:33:01.011Z,80.70
2023-04-29T02:35:27.769Z,78.37
2023-04-29T02:37:54.719Z,83.13
2023-04-29T02:40:21.705Z,76.03
2023-04-29T02:42:48.444Z,69.40
2023-04-29T02:45:15.170Z,76.33
2023-04-29T02:47:42.087Z,69.27
2023-04-29T02:50:09.076Z,69.27
2023-04-29T02:52:36.168Z,75.07
2023-04-29T02:55:03.162Z,62.97
2023-04-29T02:57:30.130Z,65.80
2023-04-29T02:59:57.406Z,66.10
2023-04-29T03:02:24.788Z,61.00
2023-04-29T03:04:51.441Z,58.43
2023-04-29T03:07:18.519Z,61.70
2023-04-29T03:09:45.319Z,62.50
2023-04-29T03:12:12.247Z,57.33
2023-04-29T03:14:38.832Z,53.00
2023-04-29T03:17:05.433Z,60.20
2023-04-29T03:19:32.225Z,52.60
2023-04-29T03:21:58.822Z,48.67
2023-04-29T03:24:25.462Z,50.83
2023-04-29T03:26:52.073Z,48.07
2023-04-29T03:29:18.867Z,48.67
2023-04-29T03:31:45.707Z,48.00
2023-04-29T03:34:14.563Z,50.10
2023-04-29T03:36:41.169Z,46.70
2023-04-29T03:39:07.789Z,48.40
2023-04-29T03:41:34.416Z,48.70
2023-04-29T03:44:01.230Z,49.73
2023-04-29T03:46:28.132Z,52.23
2023-04-29T03:48:57.971Z,49.07
2023-04-29T03:51:25.379Z,43.00
2023-04-29T03:53:53.035Z,41.87
2023-04-29T03:56:19.605Z,47.23
2023-04-29T03:58:46.500Z,44.30
2023-04-29T04:01:13.132Z,42.40
2023-04-29T04:03:40.074Z,42.87
2023-04-29T04:06:06.709Z,39.00
2023-04-29T04:08:33.240Z,43.73
2023-04-29T04:11:03.132Z,50.00
2023-04-29T04:13:30.028Z,37.37
2023-04-29T04:15:56.884Z,41.93
2023-04-29T04:18:23.848Z,47.30
2023-04-29T04:20:50.465Z,43.50
2023-04-29T04:23:17.979Z,46.60
2023-04-29T04:25:48.546Z,48.80
2023-04-29T04:28:15.827Z,46.27
2023-04-29T04:30:42.984Z,41.03
2023-04-29T04:33:10.706Z,43.60
2023-04-29T04:35:37.211Z,54.60
2023-04-29T04:38:04.349Z,46.90
2023-04-29T04:40:30.872Z,54.37
2023-04-29T04:42:57.433Z,53.73
2023-04-29T04:45:24.289Z,55.00
2023-04-29T04:47:51.059Z,41.53
2023-04-29T04:50:17.733Z,46.80
2023-04-29T04:52:44.324Z,48.70
2023-04-29T04:55:12.276Z,50.37
2023-04-29T04:57:40.373Z,46.00
2023-04-29T05:00:07.513Z,50.10
2023-04-29T05:02:34.298Z,47.87
2023-04-29T05:05:01.292Z,44.00
2023-04-29T05:07:27.813Z,48.73
2023-04-29T05:09:54.639Z,44.83
2023-04-29T05:12:21.559Z,49.50
2023-04-29T05:14:48.077Z,44.73
2023-04-29T05:17:14.586Z,47.00
2023-04-29T05:19:41.273Z,43.40
2023-04-29T05:22:08.011Z,44.50
2023-04-29T05:24:34.605Z,44.33
2023-04-29T05:27:01.100Z,41.50
2023-04-29T05:29:28.048Z,43.47
2023-04-29T05:31:54.517Z,45.90
2023-04-29T05:34:21.111Z,38.87
2023-04-29T05:36:48.083Z,40.30
2023-04-29T05:39:14.915Z,42.53
2023-04-29T05:41:41.700Z,39.83
2023-04-29T05:44:08.278Z,39.00
2023-04-29T05:46:35.094Z,43.13
2023-04-29T05:49:01.765Z,43.90
2023-04-29T05:51:28.535Z,38.60
2023-04-29T05:53:55.158Z,36.97
2023-04-29T05:56:22.448Z,36.03
2023-04-29T05:58:49.025Z,35.73
2023-04-29T06:01:17.375Z,36.23
2023-04-29T06:03:44.105Z,38.17
2023-04-29T06:06:11.310Z,34.73
2023-04-29T06:08:38.021Z,37.10
2023-04-29T06:11:05.377Z,32.87
2023-04-29T06:13:32.766Z,34.37
2023-04-29T06:15:59.249Z,36.23
2023-04-29T06:18:25.776Z,31.43
2023-04-29T06:20:52.459Z,38.43
2023-04-29T06:23:18.930Z,34.47
2023-04-29T06:25:45.424Z,36.70
2023-04-29T06:28:12.122Z,39.07
2023-04-29T06:30:38.600Z,38.17
2023-04-29T06:33:06.052Z,36.53
2023-04-29T06:35:32.660Z,41.30
2023-04-29T06:37:59.131Z,37.30
2023-04-29T06:40:26.070Z,36.10
2023-04-29T06:42:52.616Z,43.90
2023-04-29T06:45:19.173Z,40.73
2023-04-29T06:47:46.919Z,39.40
2023-04-29T06:50:13.646Z,38.53
2023-04-29T06:52:40.298Z,38.67
2023-04-29T06:55:07.218Z,38.10
2023-04-29T06:57:33.831Z,40.93
2023-04-29T07:00:00.886Z,45.43
2023-04-29T07:02:27.571Z,44.80
2023-04-29T07:04:54.417Z,44.10
2023-04-29T07:07:21.047Z,41.00
2023-04-29T07:09:48.654Z,40.53
2023-04-29T07:12:15.203Z,45.20
2023-04-29T07:14:41.968Z,39.43
2023-04-29T07:17:08.593Z,42.67
2023-04-29T07:19:35.936Z,39.93
2023-04-29T07:22:02.972Z,42.53
2023-04-29T07:24:29.674Z,41.03
2023-04-29T07:26:56.246Z,38.20
2023-04-29T07:29:22.827Z,36.57
2023-04-29T07:31:49.574Z,43.13
2023-04-29T07:34:16.209Z,38.17
2023-04-29T07:36:42.813Z,41.70
2023-04-29T07:39:09.785Z,39.03
2023-04-29T07:41:36.453Z,37.43
2023-04-29T07:44:04.108Z,38.00
2023-04-29T07:46:31.410Z,33.10
2023-04-29T07:48:58.434Z,34.93
2023-04-29T07:51:25.173Z,34.50
2023-04-29T07:53:52.038Z,32.93
2023-04-29T07:56:21.332Z,35.37
2023-04-29T07:58:47.968Z,38.13
2023-04-29T08:01:15.544Z,39.83
2023-04-29T08:03:42.577Z,49.20
2023-04-29T08:06:09.516Z,37.83
2023-04-29T08:08:37.541Z,42.50
2023-04-29T08:11:04.707Z,44.80
2023-04-29T08:13:31.546Z,43.80
2023-04-29T08:15:58.183Z,41.30
2023-04-29T08:18:25.197Z,47.40
2023-04-29T08:20:51.833Z,41.60
2023-04-29T08:23:18.714Z,49.47
2023-04-29T08:25:45.912Z,55.87
2023-04-29T08:28:13.229Z,48.73
2023-04-29T08:30:41.042Z,49.37
2023-04-29T08:33:08.510Z,60.00
2023-04-29T08:35:39.089Z,58.83
2023-04-29T08:38:06.828Z,49.90
2023-04-29T08:40:41.693Z,55.73
2023-04-29T08:43:10.239Z,61.40
2023-04-29T08:45:37.184Z,54.27
2023-04-29T08:48:04.320Z,53.97
2023-04-29T08:50:31.878Z,52.27
2023-04-29T08:52:59.277Z,53.00
2023-04-29T08:55:26.275Z,56.80
2023-04-29T08:57:55.121Z,52.40
2023-04-29T09:00:22.603Z,49.37
2023-04-29T09:02:54.051Z,58.87
2023-04-29T09:05:21.886Z,50.93
2023-04-29T09:07:48.801Z,54.43
2023-04-29T09:10:16.391Z,52.37
2023-04-29T09:12:43.062Z,52.53
2023-04-29T09:15:10.334Z,50.47
2023-04-29T09:17:44.472Z,54.87
2023-04-29T09:20:20.438Z,58.47
2023-04-29T09:22:51.058Z,49.20
2023-04-29T09:25:17.846Z,52.50
2023-04-29T09:27:44.923Z,46.23
2023-04-29T09:30:13.875Z,54.03
2023-04-29T09:32:41.071Z,43.40
2023-04-29T09:35:27.584Z,44.10
2023-04-29T09:38:08.987Z,39.20
2023-04-29T09:40:50.256Z,35.60
2023-04-29T09:43:24.649Z,34.33
2023-04-29T09:45:51.748Z,33.53
2023-04-29T09:48:18.680Z,32.00
2023-04-29T09:50:59.706Z,31.53
2023-04-29T09:53:31.179Z,32.93
2023-04-29T09:56:02.265Z,34.90
2023-04-29T09:58:31.182Z,36.80
2023-04-29T10:01:01.029Z,35.60
2023-04-29T10:03:34.620Z,32.10
2023-04-29T10:06:02.856Z,32.63
2023-04-29T10:08:30.181Z,32.13
2023-04-29T10:11:01.948Z,36.00
2023-04-29T10:13:29.037Z,31.43
2023-04-29T10:16:08.004Z,31.40
2023-04-29T10:18:41.696Z,30.33
2023-04-29T10:21:11.841Z,30.13
2023-04-29T10:23:39.373Z,29.90
2023-04-29T10:26:07.138Z,28.03
2023-04-29T10:28:33.753Z,29.50
2023-04-29T10:31:04.754Z,30.20
2023-04-29T10:33:35.303Z,28.70
2023-04-29T10:36:03.308Z,27.03
2023-04-29T10:38:35.846Z,27.37
2023-04-29T10:41:04.547Z,27.93
2023-04-29T10:43:32.005Z,26.90
2023-04-29T10:46:26.880Z,24.53
2023-04-29T10:48:59.580Z,25.17
2023-04-29T10:51:33.030Z,25.10
2023-04-29T10:54:02.122Z,25.07
2023-04-29T10:56:37.976Z,25.73
2023-04-29T10:59:04.944Z,23.33
2023-04-29T11:01:52.414Z,22.17
2023-04-29T11:04:22.729Z,22.37
2023-04-29T11:06:58.197Z,23.10
2023-04-29T11:09:27.136Z,24.20
2023-04-29T11:11:58.426Z,23.90
2023-04-29T11:14:26.821Z,24.93
2023-04-29T11:16:57.906Z,26.37
2023-04-29T11:19:29.273Z,24.20
2023-04-29T11:22:19.158Z,23.93
2023-04-29T11:25:02.091Z,21.33
2023-04-29T11:27:39.957Z,24.17
2023-04-29T11:30:07.764Z,24.30
2023-04-29T11:32:36.435Z,23.07
2023-04-29T11:35:10.116Z,22.33
2023-04-29T11:37:37.387Z,22.57
2023-04-29T11:40:05.471Z,22.00
2023-04-29T11:42:36.012Z,19.23
2023-04-29T11:45:02.744Z,22.00
2023-04-29T11:47:30.536Z,20.93
2023-04-29T11:50:04.987Z,20.30
2023-04-29T11:52:32.252Z,19.47
2023-04-29T11:55:00.201Z,19.50
2023-04-29T11:57:26.943Z,20.83
2023-04-29T11:59:53.815Z,21.27
2023-04-29T12:02:23.969Z,21.53
2023-04-29T12:04:51.736Z,21.27
2023-04-29T12:07:18.675Z,20.60
2023-04-29T12:09:49.121Z,20.90
2023-04-29T12:12:16.004Z,22.13
2023-04-29T12:14:43.237Z,20.80
2023-04-29T12:17:10.421Z,22.67
2023-04-29T12:19:39.182Z,19.93
2023-04-29T12:22:08.065Z,22.63
2023-04-29T12:24:39.786Z,20.20
2023-04-29T12:27:10.326Z,19.27
2023-04-29T12:29:37.672Z,22.33
2023-04-29T12:32:04.518Z,18.70
2023-04-29T12:34:32.385Z,20.73
2023-04-29T12:37:00.234Z,20.93
2023-04-29T12:39:27.681Z,23.60
2023-04-29T12:42:01.871Z,21.17
2023-04-29T12:44:36.557Z,20.97
2023-04-29T12:47:08.984Z,21.73
2023-04-29T12:49:37.180Z,19.80
2023-04-29T12:52:04.394Z,21.87
2023-04-29T12:54:31.123Z,21.60
2023-04-29T12:56:57.720Z,21.00
2023-04-29T12:59:24.351Z,21.60
2023-04-29T13:01:51.342Z,21.23
2023-04-29T13:04:18.044Z,21.13
2023-04-29T13:06:44.694Z,20.00
2023-04-29T13:09:17.479Z,21.60
2023-04-29T13:11:45.265Z,20.70
2023-04-29T13:14:12.161Z,22.60
2023-04-29T13:16:39.081Z,19.73
2023-04-29T13:19:18.027Z,22.67
2023-04-29T13:21:53.056Z,22.17
2023-04-29T13:24:20.929Z,21.20
2023-04-29T13:26:50.339Z,22.33
2023-04-29T13:29:18.869Z,22.77
2023-04-29T13:31:47.533Z,21.60
2023-04-29T13:34:14.327Z,21.83
2023-04-29T13:36:40.986Z,21.23
2023-04-29T13:39:07.815Z,20.20
2023-04-29T13:41:35.571Z,21.87
2023-04-29T13:44:03.020Z,21.93
2023-04-29T13:46:32.564Z,19.90
2023-04-29T13:54:49.290Z,22.53
2023-04-29T13:59:41.687Z,24.50
2023-04-29T14:04:31.572Z,19.30
2023-04-29T14:06:58.332Z,20.40
2023-04-29T14:09:25.064Z,21.03
2023-04-29T14:11:51.752Z,21.37
2023-04-29T14:14:18.481Z,21.83
2023-04-29T14:16:45.270Z,20.37
2023-04-29T14:19:11.994Z,20.87
2023-04-29T14:21:39.118Z,21.30
2023-04-29T14:24:05.883Z,20.50
2023-04-29T14:26:32.522Z,19.33
2023-04-29T14:29:00.141Z,20.10
2023-04-29T14:31:31.684Z,21.67
2023-04-29T14:33:58.577Z,21.53
2023-04-29T14:36:26.683Z,21.07
2023-04-29T14:38:53.404Z,19.23
2023-04-29T14:41:21.616Z,19.83
2023-04-29T14:43:48.345Z,20.40
2023-04-29T14:46:15.070Z,20.93
2023-04-29T14:48:41.746Z,20.10
2023-04-29T14:51:08.909Z,16.83
2023-04-29T14:53:36.613Z,18.33
2023-04-29T14:56:03.743Z,17.50
2023-04-29T14:58:30.915Z,17.53
2023-04-29T15:00:57.758Z,16.97
2023-04-29T15:03:24.889Z,16.03
2023-04-29T15:05:51.831Z,15.90
2023-04-29T15:08:19.383Z,16.00
2023-04-29T15:10:47.572Z,15.80
2023-04-29T15:13:14.995Z,14.93
2023-04-29T15:15:41.935Z,14.77
2023-04-29T15:18:09.159Z,14.37
2023-04-29T15:20:37.014Z,16.90
2023-04-29T15:23:05.492Z,14.43
2023-04-29T15:25:36.285Z,13.30
2023-04-29T15:28:05.124Z,12.27
2023-04-29T15:30:32.336Z,13.50
2023-04-29T15:32:59.297Z,12.67
2023-04-29T15:35:27.045Z,15.63
2023-04-29T15:37:54.050Z,13.10
2023-04-29T15:40:20.654Z,13.30
2023-04-29T15:42:47.712Z,13.60
2023-04-29T15:45:14.264Z,13.97
2023-04-29T15:47:40.942Z,14.03
2023-04-29T15:50:09.593Z,14.93
2023-04-29T15:52:36.900Z,13.30
2023-04-29T15:55:04.975Z,14.50
2023-04-29T15:57:31.634Z,13.90
2023-04-29T15:59:58.336Z,16.10
2023-04-29T16:02:25.285Z,14.33
2023-04-29T16:04:51.852Z,16.60
2023-04-29T16:07:18.435Z,15.47
2023-04-29T16:09:45.036Z,14.90
2023-04-29T16:12:13.084Z,17.20
2023-04-29T16:14:39.728Z,13.70
2023-04-29T16:17:06.778Z,14.40
2023-04-29T16:19:35.982Z,13.07
2023-04-29T16:22:03.778Z,17.37
2023-04-29T16:24:30.363Z,12.77
2023-04-29T16:26:58.887Z,14.47
2023-04-29T16:29:25.769Z,17.30
2023-04-29T16:31:52.954Z,15.27
2023-04-29T16:34:20.062Z,13.97
2023-04-29T16:36:47.008Z,13.60
2023-04-29T16:39:13.801Z,13.97
2023-04-29T16:41:41.294Z,13.93
2023-04-29T16:44:08.054Z,13.60
2023-04-29T16:46:35.326Z,14.27
2023-04-29T16:49:02.115Z,13.67
2023-04-29T16:51:29.200Z,12.93
2023-04-29T16:53:55.789Z,17.23
2023-04-29T16:56:22.606Z,13.63
2023-04-29T16:58:49.209Z,13.20
2023-04-29T17:01:16.435Z,14.93
2023-04-29T17:03:43.138Z,12.67
2023-04-29T17:06:09.829Z,15.20
2023-04-29T17:08:36.720Z,13.43
2023-04-29T17:11:04.771Z,12.93
2023-04-29T17:13:31.670Z,14.33
2023-04-29T17:15:58.390Z,14.27
2023-04-29T17:18:25.080Z,13.60
2023-04-29T17:20:51.654Z,11.93
2023-04-29T17:23:18.363Z,12.10
2023-04-29T17:25:45.129Z,12.90
2023-04-29T17:28:11.929Z,15.13
2023-04-29T17:30:38.694Z,15.80
2023-04-29T17:33:05.973Z,16.70
2023-04-29T17:35:33.714Z,13.70
2023-04-29T17:38:00.414Z,13.33
2023-04-29T17:40:27.540Z,14.00
2023-04-29T17:42:54.111Z,13.97
2023-04-29T17:45:20.743Z,14.10
2023-04-29T17:47:48.414Z,13.67
2023-04-29T17:50:15.393Z,13.90
2023-04-29T17:52:42.748Z,15.37
2023-04-29T17:55:10.109Z,18.50
2023-04-29T17:57:38.076Z,14.13
2023-04-29T18:00:07.307Z,14.37
2023-04-29T18:02:34.638Z,13.83
2023-04-29T18:05:03.529Z,14.93
2023-04-29T18:07:30.155Z,14.23
2023-04-29T18:09:57.043Z,18.57
2023-04-29T18:12:24.971Z,15.80
2023-04-29T18:14:51.975Z,17.30
2023-04-29T18:17:19.021Z,16.10
2023-04-29T18:19:49.658Z,17.30
2023-04-29T18:22:16.847Z,15.60
2023-04-29T18:24:43.699Z,18.47
2023-04-29T18:27:10.456Z,16.23
2023-04-29T18:29:37.950Z,15.70
2023-04-29T18:32:07.819Z,15.27
2023-04-29T18:34:34.966Z,14.53
2023-04-29T18:37:01.664Z,15.17
2023-04-29T18:39:28.445Z,15.17
2023-04-29T18:41:55.324Z,16.83
2023-04-29T18:44:21.992Z,16.80
2023-04-29T18:46:48.562Z,20.10
2023-04-29T18:49:18.104Z,22.80
2023-04-29T18:51:46.754Z,21.63
2023-04-29T18:54:15.234Z,18.90
2023-04-29T18:56:46.261Z,16.27
2023-04-29T18:59:15.798Z,16.20
2023-04-29T19:01:43.217Z,17.73
2023-04-29T19:04:10.266Z,16.20
2023-04-29T19:06:37.736Z,15.47
2023-04-29T19:09:05.489Z,16.67
2023-04-29T19:11:32.660Z,18.50
2023-04-29T19:13:59.262Z,18.87
2023-04-29T19:16:26.201Z,21.60
2023-04-29T19:18:53.614Z,19.23
2023-04-29T19:21:20.648Z,20.40
2023-04-29T19:23:47.767Z,21.60
2023-04-29T19:26:14.448Z,19.47
2023-04-29T19:28:41.147Z,19.13
2023-04-29T19:31:07.764Z,25.73
2023-04-29T19:33:34.633Z,18.77
2023-04-29T19:36:01.347Z,19.53
2023-04-29T19:38:28.035Z,19.50
2023-04-29T19:40:56.034Z,20.23
2023-04-29T19:43:23.106Z,21.37
2023-04-29T19:45:51.666Z,20.70
2023-04-29T19:48:18.222Z,21.70
2023-04-29T19:50:44.851Z,22.13
2023-04-29T19:53:11.743Z,20.90
2023-04-29T19:55:41.191Z,17.10
2023-04-29T19:58:07.967Z,16.80
2023-04-29T20:00:35.294Z,15.20
2023-04-29T20:03:02.759Z,15.80
2023-04-29T20:05:29.785Z,18.70
2023-04-29T20:07:56.375Z,15.67
2023-04-29T20:10:23.085Z,16.70
2023-04-29T20:12:50.523Z,15.73
2023-04-29T20:15:17.200Z,16.20
2023-04-29T20:17:44.141Z,17.23
2023-04-29T20:20:11.170Z,17.60
2023-04-29T20:22:38.491Z,19.77
2023-04-29T20:25:05.591Z,14.90
2023-04-29T20:27:32.351Z,19.00
2023-04-29T20:29:59.061Z,16.63
2023-04-29T20:32:26.822Z,17.53
2023-04-29T20:34:56.915Z,18.30
2023-04-29T20:37:23.602Z,15.83
2023-04-29T20:39:50.837Z,16.20
2023-04-29T20:42:17.556Z,16.30
2023-04-29T20:44:44.433Z,14.93
2023-04-29T20:47:11.050Z,16.40
2023-04-29T20:49:39.444Z,16.73
2023-04-29T20:52:08.959Z,17.17
2023-04-29T20:54:36.927Z,15.70
2023-04-29T20:57:05.570Z,17.00
2023-04-29T20:59:33.598Z,19.63
2023-04-29T21:02:00.242Z,15.97
2023-04-29T21:04:27.113Z,14.43
2023-04-29T21:06:53.760Z,15.30
2023-04-29T21:09:21.447Z,13.50
2023-04-29T21:11:48.376Z,15.50
2023-04-29T21:14:14.986Z,14.50
2023-04-29T21:16:42.407Z,12.30
2023-04-29T21:19:08.960Z,12.43
2023-04-29T21:21:35.610Z,15.07
2023-04-29T21:24:02.197Z,11.40
2023-04-29T21:26:29.101Z,17.60
2023-04-29T21:28:55.997Z,11.90
2023-04-29T21:31:24.309Z,11.17
2023-04-29T21:33:50.968Z,11.73
2023-04-29T21:36:17.649Z,11.83
2023-04-29T21:38:44.335Z,11.97
2023-04-29T21:41:28.222Z,12.17
2023-04-29T21:43:57.567Z,11.37
2023-04-29T21:46:25.201Z,11.70
2023-04-29T21:48:51.954Z,11.50
2023-04-29T21:51:22.963Z,13.20
2023-04-29T21:53:50.764Z,11.70
2023-04-29T21:56:17.420Z,12.93
2023-04-29T21:58:44.805Z,13.63
2023-04-29T22:01:39.344Z,9.80
2023-04-29T22:04:06.335Z,10.50
2023-04-29T22:06:34.505Z,10.17
2023-04-29T22:09:01.540Z,9.63
2023-04-29T22:11:28.608Z,10.20
2023-04-29T22:13:56.325Z,9.33
2023-04-29T22:16:23.564Z,12.27
2023-04-29T22:18:50.818Z,10.57
2023-04-29T22:21:17.993Z,10.70
2023-04-29T22:23:44.728Z,14.17
2023-04-29T22:26:11.362Z,9.83
2023-04-29T22:28:37.883Z,9.37
2023-04-29T22:31:04.623Z,8.90
2023-04-29T22:33:31.549Z,8.73
2023-04-29T22:35:58.203Z,11.17
2023-04-29T22:38:24.863Z,8.10
2023-04-29T22:40:52.250Z,9.53
2023-04-29T22:43:18.896Z,10.60
2023-04-29T22:45:55.399Z,10.17
2023-04-29T22:48:24.171Z,7.20
2023-04-29T22:50:53.739Z,8.83
2023-04-29T22:53:21.180Z,8.73
2023-04-29T22:55:55.204Z,8.57
2023-04-29T22:58:22.502Z,8.20
2023-04-29T23:00:57.032Z,9.57
2023-04-29T23:03:24.059Z,8.57
2023-04-29T23:05:51.568Z,11.70
2023-04-29T23:08:18.492Z,9.77
2023-04-29T23:10:49.515Z,8.30
2023-04-29T23:13:19.208Z,8.70
2023-04-29T23:15:45.980Z,10.20
2023-04-29T23:18:13.036Z,9.10
2023-04-29T23:20:39.724Z,9.80
2023-04-29T23:23:08.395Z,8.70
2023-04-29T23:25:35.002Z,7.93
2023-04-29T23:28:01.870Z,11.97
2023-04-29T23:30:28.507Z,9.67
2023-04-29T23:32:55.474Z,9.27
2023-04-29T23:35:22.321Z,9.17
2023-04-29T23:37:49.007Z,9.30
2023-04-29T23:40:16.056Z,8.23
2023-04-29T23:42:42.641Z,8.23
2023-04-29T23:45:09.461Z,9.57
2023-04-29T23:47:36.059Z,8.10
2023-04-29T23:50:04.022Z,9.47
2023-04-29T23:52:30.671Z,9.10
2023-04-29T23:54:57.564Z,8.30
2023-04-29T23:57:24.187Z,8.43
2023-04-29T23:59:50.850Z,12.27
